createdAt,value
2023-04-10T00:00:26.063Z,29.18
2023-04-10T00:06:08.722Z,29.11
2023-04-10T00:15:34.365Z,29.15
2023-04-10T00:22:01.603Z,28.96
2023-04-10T00:27:10.654Z,29.19
2023-04-10T00:33:05.404Z,29.20
2023-04-10T00:38:32.202Z,29.24
2023-04-10T00:43:58.967Z,29.30
2023-04-10T00:49:46.329Z,29.31
2023-04-10T00:55:28.709Z,29.37
2023-04-10T01:01:11.242Z,29.46
2023-04-10T01:06:53.737Z,29.64
2023-04-10T01:12:50.503Z,29.72
2023-04-10T01:18:10.910Z,30.01
2023-04-10T01:23:18.907Z,30.17
2023-04-10T01:28:26.472Z,30.51
2023-04-10T01:33:33.997Z,30.85
2023-04-10T01:38:41.306Z,31.11
2023-04-10T01:43:48.476Z,31.24
2023-04-10T01:48:55.642Z,31.35
2023-04-10T01:54:04.558Z,31.48
2023-04-10T01:59:10.505Z,31.53
2023-04-10T02:04:18.160Z,31.59
2023-04-10T02:09:48.088Z,31.49
2023-04-10T02:15:18.016Z,31.61
2023-04-10T02:21:00.309Z,31.68
2023-04-10T02:26:07.682Z,31.82
2023-04-10T02:31:14.995Z,31.88
2023-04-10T02:36:22.591Z,31.92
2023-04-10T02:41:30.197Z,31.96
2023-04-10T02:46:38.130Z,31.99
2023-04-10T02:51:51.738Z,31.93
2023-04-10T02:57:10.136Z,32.14
2023-04-10T03:02:28.963Z,32.17
2023-04-10T03:07:36.314Z,32.15
2023-04-10T03:12:43.964Z,32.08
2023-04-10T03:23:17.968Z,32.04
2023-04-10T03:28:27.231Z,31.99
2023-04-10T03:33:39.789Z,31.93
2023-04-10T03:39:22.192Z,31.91
2023-04-10T03:45:04.661Z,31.62
2023-04-10T03:50:11.982Z,31.65
2023-04-10T03:55:21.368Z,31.49
2023-04-10T04:00:43.889Z,31.58
2023-04-10T04:05:51.238Z,31.66
2023-04-10T04:11:33.844Z,31.89
2023-04-10T04:17:16.380Z,31.91
2023-04-10T04:22:23.728Z,32.02
2023-04-10T04:27:31.457Z,32.17
2023-04-10T04:32:57.861Z,32.14
2023-04-10T04:38:11.837Z,32.29
2023-04-10T04:43:22.607Z,32.21
2023-04-10T04:48:34.894Z,32.14
2023-04-10T04:54:22.743Z,31.92
2023-04-10T05:00:05.315Z,31.57
2023-04-10T05:05:12.811Z,31.34
2023-04-10T05:11:00.021Z,31.17
2023-04-10T05:16:07.813Z,31.09
2023-04-10T05:21:21.378Z,31.02
2023-04-10T05:26:28.927Z,31.05
2023-04-10T05:32:11.450Z,31.13
2023-04-10T05:37:18.761Z,31.06
2023-04-10T05:42:26.157Z,31.08
2023-04-10T05:48:08.745Z,31.12
2023-04-10T05:53:58.145Z,31.12
2023-04-10T05:58:33.037Z,31.31
2023-04-10T06:03:46.716Z,31.53
2023-04-10T06:09:14.626Z,31.96
2023-04-10T06:14:18.629Z,31.91
2023-04-10T06:19:21.013Z,31.85
2023-04-10T06:24:43.745Z,31.74
2023-04-10T06:29:47.406Z,31.73
2023-04-10T06:34:54.935Z,31.67
2023-04-10T06:40:02.643Z,31.78
2023-04-10T06:45:09.918Z,31.74
2023-04-10T06:50:53.091Z,31.49
2023-04-10T06:56:35.709Z,31.44
2023-04-10T07:02:18.483Z,31.32
2023-04-10T07:07:25.653Z,31.29
2023-04-10T07:13:08.157Z,31.22
2023-04-10T07:18:51.179Z,31.21
2023-04-10T07:24:33.752Z,31.16
2023-04-10T07:29:47.344Z,31.21
2023-04-10T07:35:16.208Z,31.20
2023-04-10T07:40:08.490Z,31.14
2023-04-10T07:50:28.277Z,31.04
2023-04-10T07:51:11.187Z,31.05
2023-04-10T08:02:10.464Z,31.14
2023-04-10T08:07:18.194Z,31.19
2023-04-10T08:12:26.418Z,31.17
2023-04-10T08:18:08.918Z,31.19
2023-04-10T08:23:51.375Z,31.22
2023-04-10T08:34:34.916Z,31.32
2023-04-10T08:41:38.681Z,31.34
2023-04-10T08:45:21.866Z,31.43
2023-04-10T08:50:39.207Z,31.53
2023-04-10T08:56:41.826Z,31.57
2023-04-10T09:01:57.627Z,31.62
2023-04-10T09:07:40.029Z,31.53
2023-04-10T09:13:22.529Z,31.37
2023-04-10T09:19:06.653Z,31.53
2023-04-10T09:24:21.646Z,31.41
2023-04-10T09:30:06.981Z,30.79
2023-04-10T09:34:58.378Z,31.28
2023-04-10T09:40:55.797Z,30.25
2023-04-10T09:46:43.827Z,30.53
2023-04-10T09:51:51.049Z,30.81
2023-04-10T09:56:58.258Z,31.41
2023-04-10T10:02:05.552Z,31.88
2023-04-10T10:07:12.629Z,31.64
2023-04-10T10:12:19.819Z,31.62
2023-04-10T10:17:27.044Z,31.44
2023-04-10T10:22:34.182Z,31.25
2023-04-10T10:27:41.343Z,31.24
2023-04-10T10:32:48.732Z,30.88
2023-04-10T10:37:55.753Z,31.17
2023-04-10T10:43:02.963Z,30.71
2023-04-10T10:48:10.310Z,30.27
2023-04-10T10:53:17.423Z,30.98
2023-04-10T10:58:24.604Z,31.11
2023-04-10T11:03:31.948Z,31.32
2023-04-10T11:08:39.084Z,31.37
2023-04-10T11:13:46.367Z,31.57
2023-04-10T11:19:02.826Z,31.75
2023-04-10T11:24:00.807Z,31.08
2023-04-10T11:29:07.914Z,31.09
2023-04-10T11:34:15.107Z,30.39
2023-04-10T11:39:22.294Z,29.67
2023-04-10T11:44:29.477Z,29.61
2023-04-10T11:49:36.681Z,29.79
2023-04-10T11:54:43.828Z,29.53
2023-04-10T11:59:51.017Z,29.88
2023-04-10T12:04:58.411Z,29.40
2023-04-10T12:10:05.582Z,29.27
2023-04-10T12:15:12.768Z,29.05
2023-04-10T12:20:19.986Z,29.11
2023-04-10T12:25:27.209Z,28.81
2023-04-10T12:30:34.317Z,28.53
2023-04-10T12:35:41.605Z,28.90
2023-04-10T12:40:48.692Z,28.89
2023-04-10T12:45:56.938Z,28.76
2023-04-10T12:51:03.093Z,28.77
2023-04-10T12:56:10.518Z,29.02
2023-04-10T13:01:17.789Z,28.23
2023-04-10T13:06:24.974Z,27.89
2023-04-10T13:11:35.825Z,28.21
2023-04-10T13:16:43.021Z,29.10
2023-04-10T13:21:50.221Z,28.42
2023-04-10T13:26:57.399Z,28.50
2023-04-10T13:32:04.663Z,28.12
2023-04-10T13:37:11.952Z,27.93
2023-04-10T13:42:19.153Z,27.43
2023-04-10T13:47:26.496Z,27.22
2023-04-10T13:52:33.758Z,27.93
2023-04-10T13:57:41.363Z,27.82
2023-04-10T14:02:48.321Z,27.10
2023-04-10T14:07:55.555Z,27.11
2023-04-10T14:13:03.149Z,27.73
2023-04-10T14:18:10.422Z,28.32
2023-04-10T14:23:17.649Z,28.82
2023-04-10T14:28:24.805Z,29.00
2023-04-10T14:33:32.040Z,30.03
2023-04-10T14:38:39.202Z,30.14
2023-04-10T14:43:46.454Z,30.09
2023-04-10T14:48:53.749Z,29.88
2023-04-10T14:54:00.961Z,28.87
2023-04-10T14:59:08.132Z,27.65
2023-04-10T15:04:15.460Z,27.28
2023-04-10T15:09:22.724Z,27.50
2023-04-10T15:14:29.872Z,27.82
2023-04-10T15:19:37.268Z,27.13
2023-04-10T15:24:50.596Z,28.05
2023-04-10T15:29:51.635Z,27.42
2023-04-10T15:34:58.937Z,27.08
2023-04-10T15:40:06.350Z,26.79
2023-04-10T15:45:13.395Z,27.01
2023-04-10T15:50:20.617Z,26.66
2023-04-10T15:55:27.942Z,26.51
2023-04-10T16:00:36.758Z,26.70
2023-04-10T16:05:43.963Z,26.74
2023-04-10T16:10:51.296Z,26.76
2023-04-10T16:15:58.582Z,27.05
2023-04-10T16:21:05.977Z,27.34
2023-04-10T16:26:13.344Z,27.23
2023-04-10T16:31:20.606Z,28.15
2023-04-10T16:36:27.764Z,27.94
2023-04-10T16:41:35.080Z,27.91
2023-04-10T16:46:42.377Z,28.05
2023-04-10T16:51:49.621Z,28.11
2023-04-10T16:56:56.846Z,28.38
2023-04-10T17:02:04.065Z,28.13
2023-04-10T17:07:11.272Z,28.24
2023-04-10T17:12:18.750Z,28.39
2023-04-10T17:17:26.115Z,28.45
2023-04-10T17:22:33.216Z,28.73
2023-04-10T17:27:40.793Z,29.35
2023-04-10T17:32:47.711Z,29.69
2023-04-10T17:37:54.880Z,29.69
2023-04-10T17:43:02.090Z,29.53
2023-04-10T17:48:09.357Z,29.68
2023-04-10T17:53:16.595Z,29.41
2023-04-10T17:58:24.056Z,29.40
2023-04-10T18:03:31.292Z,29.43
2023-04-10T18:08:38.709Z,29.79
2023-04-10T18:13:46.128Z,29.94
2023-04-10T18:18:53.882Z,30.38
2023-04-10T18:24:00.962Z,30.09
2023-04-10T18:29:08.165Z,29.96
2023-04-10T18:34:15.332Z,29.87
2023-04-10T18:39:22.653Z,29.88
2023-04-10T18:44:31.251Z,30.29
2023-04-10T18:49:37.310Z,30.17
2023-04-10T18:54:44.510Z,30.19
2023-04-10T18:59:51.843Z,30.26
2023-04-10T19:04:59.175Z,30.30
2023-04-10T19:10:06.734Z,30.24
2023-04-10T19:15:14.149Z,30.46
2023-04-10T19:20:50.587Z,30.36
2023-04-10T19:25:29.102Z,30.52
2023-04-10T19:30:36.673Z,30.23
2023-04-10T19:35:44.574Z,30.31
2023-04-10T19:40:52.997Z,30.72
2023-04-10T19:46:00.352Z,30.83
2023-04-10T19:51:07.836Z,30.84
2023-04-10T19:56:15.440Z,30.91
2023-04-10T20:01:22.868Z,30.83
2023-04-10T20:06:30.017Z,30.76
2023-04-10T20:11:37.351Z,30.77
2023-04-10T20:16:44.585Z,30.78
2023-04-10T20:21:51.840Z,30.82
2023-04-10T20:26:59.111Z,30.77
2023-04-10T20:32:06.453Z,30.65
2023-04-10T20:37:13.693Z,30.72
2023-04-10T20:42:20.981Z,30.56
2023-04-10T20:47:28.256Z,30.49
2023-04-10T20:52:35.455Z,30.48
2023-04-10T20:57:42.637Z,30.31
2023-04-10T21:02:50.158Z,30.33
2023-04-10T21:07:57.131Z,30.30
2023-04-10T21:13:04.290Z,30.30
2023-04-10T21:18:11.633Z,30.42
2023-04-10T21:23:18.891Z,30.30
2023-04-10T21:28:26.163Z,30.34
2023-04-10T21:33:33.391Z,30.42
2023-04-10T21:38:40.622Z,30.40
2023-04-10T21:43:47.800Z,30.36
2023-04-10T21:48:55.315Z,30.40
2023-04-10T21:54:02.268Z,29.95
2023-04-10T21:59:09.439Z,30.17
2023-04-10T22:04:16.819Z,30.21
2023-04-10T22:09:23.917Z,30.43
2023-04-10T22:14:31.134Z,30.29
2023-04-10T22:19:38.476Z,30.58
2023-04-10T22:24:45.688Z,30.36
2023-04-10T22:30:00.233Z,30.08
2023-04-10T22:35:00.288Z,30.24
2023-04-10T22:40:07.342Z,30.29
2023-04-10T22:45:14.604Z,30.23
2023-04-10T22:50:21.835Z,29.97
2023-04-10T22:55:29.002Z,29.88
2023-04-10T23:00:36.297Z,30.00
2023-04-10T23:05:43.597Z,30.03
2023-04-10T23:10:50.862Z,30.08
2023-04-10T23:15:58.304Z,30.06
2023-04-10T23:21:05.536Z,30.02
2023-04-10T23:26:12.773Z,29.76
2023-04-10T23:31:20.027Z,29.80
2023-04-10T23:36:27.225Z,29.72
2023-04-10T23:47:22.488Z,29.84
2023-04-10T23:53:09.745Z,29.84
2023-04-10T23:58:55.296Z,29.85
